Glacier Park International Airport
KGPI : rendu visible

Aérodrome :











RETROUVEZ-NOUS SUR...

 
LOGIN :

S'inscrire | Disclaimer

   EN    FR    IT 

 









Légende :    VFR   VFR Marginal   IFR   IFR Intensif   IFR Très Intensif
Visi : 
Plafond : 
>= 8 km
>= 3000ft
5 à 8 km
1000 à 3000 ft
1500m à 5 km
500 à 1000 ft
800 à 1500m
200 à 500 ft
< 800m
< 200 ft
Symboles :   Orages  Brouillard  Fortes neiges  Fortes précipitations  Vent > 20 kt






- Altitude de l'aérodrome : 2977 ft
- Code IATA : FCA


KGPI - Glacier Park International

DERNIER METAR :
  • 082155Z 27007KT 10SM OVC080 19/07 A3000 RMK AO2 SLP150 T01940072

METARs EXPIRÉS :
  • 082055Z 20003KT 10SM SCT060 OVC080 19/07 A2999 RMK AO2 SLP149 T01940072 50002
  • 081955Z 18003KT 10SM OVC070 18/08 A2999 RMK AO2 SLP149 T01780078

TAF KGPI
Valide du 08 à 18h jusqu'au 09 à 18h UTC


081739Z 0818/0918 20011KT P6SM BKN060
FM090200 VRB03KT P6SM FEW150
FIR KZLC / Amérique du Nord



MET'MAP, la Météo Aéronautique d'un coup d'oeil ! - Copyright ORBIFLY Décembre 2007 - Disclaimer

ORBIFLY MET'MAP TEAM :

Programmation & Développement : Alexandra Zaïnal
Sur une idée originale de : Baudouin d'Aumeries
Assistance à la programmation : Marc-Olivier Méhu
Soutien technique & logistique : Manuel Goepfert

Contact : metmap@orbifly.com




SOURCES & CREDITS :

   NOAA       Earth
Advisory